Time;durP1;ratioP1;P1;durP2;ratioP2;P2;SDS_P1;SDS_P2;PMS_P1;PMS_P2;Temp;Humidity;BMP_temperature;BMP_pressure;BME280_temperature;BME280_humidity;BME280_pressure;Samples;Min_cycle;Max_cycle;Signal;HPM_P1;HPM_P2
2022/09/28 00:01:16;;;;;;;14.13;11.80;;;9.60;99.90;;;;;;4999896;28;20196;-76
2022/09/28 00:03:44;;;;;;;12.77;10.83;;;9.60;99.90;;;;;;5008848;28;20672;-76
2022/09/28 00:06:14;;;;;;;14.47;10.43;;;9.60;99.90;;;;;;4985238;28;20219;-76
2022/09/28 00:08:42;;;;;;;12.00;10.03;;;9.60;99.90;;;;;;4989545;28;20199;-76
2022/09/28 00:11:12;;;;;;;13.50;11.10;;;9.60;99.90;;;;;;4991921;28;20204;-76
2022/09/28 00:13:41;;;;;;;10.67;9.50;;;9.70;99.90;;;;;;4991096;28;20227;-76
2022/09/28 00:16:12;;;;;;;10.07;8.97;;;9.90;99.90;;;;;;4989862;28;20208;-76
2022/09/28 00:18:40;;;;;;;12.77;9.10;;;9.80;99.90;;;;;;4991306;28;20204;-76
2022/09/28 00:21:11;;;;;;;9.87;8.73;;;9.80;99.90;;;;;;5007130;28;20199;-76
2022/09/28 00:24:11;;;;;;;9.07;8.10;;;9.80;99.90;;;;;;5006088;28;20218;-76
2022/09/28 00:26:28;;;;;;;7.97;7.00;;;9.80;99.90;;;;;;4987642;28;20245;-76
2022/09/28 00:28:58;;;;;;;10.00;6.80;;;9.80;99.90;;;;;;4989306;28;20207;-77
2022/09/28 00:31:29;;;;;;;8.10;6.97;;;9.60;99.90;;;;;;4985790;28;20798;-77
2022/09/28 00:33:56;;;;;;;7.63;6.83;;;9.50;99.90;;;;;;4988906;28;20927;-76
2022/09/28 00:36:25;;;;;;;9.50;7.07;;;9.50;99.90;;;;;;4983053;28;20203;-77
2022/09/28 00:38:54;;;;;;;9.33;7.43;;;9.50;99.90;;;;;;4989466;28;20208;-76
2022/09/28 00:41:21;;;;;;;7.70;6.90;;;9.50;99.90;;;;;;4980333;28;20561;-76
2022/09/28 00:43:49;;;;;;;8.87;7.60;;;9.50;99.90;;;;;;5001918;28;20850;-77
2022/09/28 00:46:22;;;;;;;8.33;7.00;;;9.50;99.90;;;;;;4986108;28;20223;-76
2022/09/28 00:48:57;;;;;;;10.53;7.63;;;9.40;99.90;;;;;;5010022;28;20200;-77
2022/09/28 00:51:26;;;;;;;8.63;6.87;;;9.30;99.90;;;;;;5008559;28;20196;-76
2022/09/28 00:53:55;;;;;;;9.83;7.60;;;9.30;99.90;;;;;;4988624;28;20211;-76
2022/09/28 00:56:26;;;;;;;10.40;7.47;;;9.30;99.90;;;;;;4996434;28;20214;-76
2022/09/28 00:58:54;;;;;;;7.80;7.00;;;9.30;99.90;;;;;;4990332;28;20208;-76
2022/09/28 01:01:23;;;;;;;8.57;6.67;;;9.30;99.90;;;;;;4999701;28;20210;-76
2022/09/28 01:03:52;;;;;;;8.13;7.10;;;9.40;99.90;;;;;;4993505;28;20207;-76
2022/09/28 01:06:22;;;;;;;8.13;6.73;;;9.30;99.90;;;;;;4991718;28;20234;-76
2022/09/28 01:08:52;;;;;;;8.90;7.10;;;9.30;99.90;;;;;;4987003;28;20206;-76
2022/09/28 01:11:20;;;;;;;7.87;7.03;;;9.10;99.90;;;;;;4990951;28;20214;-76
2022/09/28 01:13:54;;;;;;;8.77;6.80;;;9.10;99.90;;;;;;4987968;28;20214;-76
2022/09/28 01:16:30;;;;;;;7.73;6.30;;;9.20;99.90;;;;;;4992061;28;20195;-76
2022/09/28 01:19:26;;;;;;;8.13;6.23;;;9.30;99.90;;;;;;4986724;28;20207;-76
2022/09/28 01:22:06;;;;;;;6.93;5.50;;;9.40;99.90;;;;;;4995450;28;20211;-76
2022/09/28 01:24:41;;;;;;;7.93;5.63;;;9.40;99.90;;;;;;5006373;28;20203;-76
2022/09/28 01:27:20;;;;;;;7.50;5.83;;;9.30;99.90;;;;;;5009756;28;20220;-76
2022/09/28 01:29:55;;;;;;;7.10;5.37;;;9.20;99.90;;;;;;4987948;28;20226;-76
2022/09/28 01:32:36;;;;;;;8.23;5.57;;;9.30;99.90;;;;;;4981753;28;20223;-76
2022/09/28 01:35:07;;;;;;;7.27;5.93;;;9.20;99.90;;;;;;4988925;28;20570;-76
2022/09/28 01:37:44;;;;;;;8.47;5.80;;;9.20;99.90;;;;;;4991269;28;20200;-76
2022/09/28 01:40:13;;;;;;;8.67;5.70;;;9.20;99.90;;;;;;4993170;28;20200;-76
2022/09/28 01:42:45;;;;;;;7.23;6.27;;;9.10;99.90;;;;;;4991102;28;20234;-76
2022/09/28 01:45:18;;;;;;;9.00;6.50;;;9.10;99.90;;;;;;4989772;28;20207;-76
2022/09/28 01:47:47;;;;;;;9.90;7.30;;;9.10;99.90;;;;;;5016221;28;20220;-76
2022/09/28 01:50:17;;;;;;;8.70;6.53;;;9.10;99.90;;;;;;4987704;28;20210;-76
2022/09/28 01:52:50;;;;;;;9.03;6.73;;;9.10;99.90;;;;;;4987013;28;20233;-76
2022/09/28 01:55:25;;;;;;;10.97;7.70;;;9.10;99.90;;;;;;4979809;28;20216;-76
2022/09/28 01:57:58;;;;;;;10.20;7.50;;;9.10;99.90;;;;;;4987916;28;20194;-76
2022/09/28 02:00:26;;;;;;;10.90;8.53;;;9.20;99.90;;;;;;4981989;28;20960;-76
2022/09/28 02:03:00;;;;;;;11.80;8.27;;;9.20;99.90;;;;;;4982075;28;20244;-76
2022/09/28 02:05:39;;;;;;;12.07;9.07;;;9.10;99.90;;;;;;4979483;28;20668;-76
2022/09/28 02:08:12;;;;;;;10.53;8.90;;;9.10;99.90;;;;;;4989335;28;20675;-76
2022/09/28 02:10:45;;;;;;;13.47;9.83;;;9.00;99.90;;;;;;4980858;28;20203;-76
2022/09/28 02:13:19;;;;;;;12.17;9.30;;;9.00;99.90;;;;;;4989702;28;20222;-77
2022/09/28 02:15:52;;;;;;;13.13;9.43;;;9.10;99.90;;;;;;4981626;28;20202;-76
2022/09/28 02:18:20;;;;;;;12.50;9.80;;;9.10;99.90;;;;;;5008372;28;20196;-77
2022/09/28 02:20:56;;;;;;;13.07;10.17;;;9.00;99.90;;;;;;5005961;28;20194;-76
2022/09/28 02:23:26;;;;;;;14.90;10.90;;;8.90;99.90;;;;;;4994823;28;20223;-76
2022/09/28 02:26:01;;;;;;;14.47;11.07;;;8.90;99.90;;;;;;4988947;28;20203;-76
2022/09/28 02:28:30;;;;;;;14.70;10.73;;;8.80;99.90;;;;;;4984485;28;20199;-76
2022/09/28 02:30:58;;;;;;;15.00;11.07;;;8.80;99.90;;;;;;4992608;28;20202;-76
2022/09/28 02:33:30;;;;;;;14.60;10.73;;;8.80;99.90;;;;;;4985800;28;20215;-77
2022/09/28 02:35:58;;;;;;;14.33;10.90;;;8.90;99.90;;;;;;5006006;28;20567;-77
2022/09/28 02:38:26;;;;;;;16.37;10.47;;;9.10;99.90;;;;;;4984963;28;20196;-76
2022/09/28 02:41:04;;;;;;;14.23;9.27;;;9.10;99.90;;;;;;4988748;28;20201;-76
2022/09/28 02:43:43;;;;;;;12.57;10.17;;;9.20;99.90;;;;;;4982709;28;20222;-76
2022/09/28 02:46:20;;;;;;;12.93;10.20;;;9.20;99.90;;;;;;4985352;28;20204;-76
2022/09/28 02:49:03;;;;;;;14.07;11.00;;;9.20;99.90;;;;;;4988989;28;20191;-76
2022/09/28 02:51:38;;;;;;;15.13;9.97;;;9.30;99.90;;;;;;4987123;28;20202;-76
2022/09/28 02:54:23;;;;;;;14.20;11.30;;;9.40;99.90;;;;;;4979493;28;20209;-76
2022/09/28 02:57:12;;;;;;;14.17;11.80;;;9.30;99.90;;;;;;4990206;28;20197;-78
2022/09/28 03:00:03;;;;;;;15.93;11.97;;;9.20;99.90;;;;;;4991398;28;20211;-78
2022/09/28 03:02:35;;;;;;;16.23;12.53;;;9.30;99.90;;;;;;5006084;28;20604;-78
2022/09/28 03:05:18;;;;;;;16.57;12.87;;;9.40;99.90;;;;;;5005987;28;20207;-78
2022/09/28 03:07:54;;;;;;;15.47;13.27;;;9.20;99.90;;;;;;4989214;28;20293;-78
2022/09/28 03:10:28;;;;;;;17.83;12.80;;;9.20;99.90;;;;;;4990490;28;20758;-78
2022/09/28 03:12:56;;;;;;;19.17;13.83;;;9.30;99.90;;;;;;4993289;28;20223;-78
2022/09/28 03:15:27;;;;;;;18.00;14.33;;;9.30;99.90;;;;;;5004728;28;20204;-78
2022/09/28 03:17:56;;;;;;;15.83;13.70;;;9.30;99.90;;;;;;4998310;28;20207;-78
2022/09/28 03:20:24;;;;;;;16.83;13.73;;;9.30;99.90;;;;;;5007410;28;20195;-78
2022/09/28 03:22:52;;;;;;;15.70;13.40;;;9.30;99.90;;;;;;4994568;28;20234;-78
2022/09/28 03:25:19;;;;;;;15.93;13.57;;;9.30;99.90;;;;;;4989023;28;20199;-78
2022/09/28 03:27:47;;;;;;;17.03;12.93;;;9.40;99.90;;;;;;5000372;28;20235;-78
2022/09/28 03:30:16;;;;;;;16.70;13.97;;;9.40;99.90;;;;;;4986956;28;20200;-78
2022/09/28 03:32:48;;;;;;;16.93;14.37;;;9.50;99.90;;;;;;4987461;28;20223;-78
2022/09/28 03:35:16;;;;;;;15.30;13.57;;;9.50;99.90;;;;;;4994086;28;20560;-78
2022/09/28 03:37:43;;;;;;;16.00;14.17;;;9.50;99.90;;;;;;4999257;28;20557;-78
2022/09/28 03:40:11;;;;;;;16.50;13.47;;;9.40;99.90;;;;;;5000893;28;20692;-78
2022/09/28 03:42:39;;;;;;;17.37;13.87;;;9.40;99.90;;;;;;4991433;28;20688;-78
2022/09/28 03:45:07;;;;;;;15.93;13.83;;;9.30;99.90;;;;;;4987470;28;20196;-78
2022/09/28 03:47:35;;;;;;;14.40;11.83;;;9.30;99.90;;;;;;4988697;28;20215;-78
2022/09/28 03:50:04;;;;;;;14.07;11.93;;;9.30;99.90;;;;;;4988046;28;20200;-78
2022/09/28 03:52:32;;;;;;;13.23;11.40;;;9.40;99.90;;;;;;4989148;28;20222;-78
2022/09/28 03:55:00;;;;;;;15.90;12.73;;;9.40;99.90;;;;;;4986813;28;20207;-78
2022/09/28 03:57:27;;;;;;;14.80;11.87;;;9.50;99.90;;;;;;5005172;28;20200;-78
2022/09/28 03:59:55;;;;;;;14.67;12.27;;;9.60;99.90;;;;;;4992397;28;20200;-78
2022/09/28 04:02:23;;;;;;;17.03;13.17;;;9.50;99.90;;;;;;4981853;28;20236;-79
2022/09/28 04:04:50;;;;;;;16.03;12.17;;;9.20;99.90;;;;;;5014559;28;20218;-78
2022/09/28 04:07:19;;;;;;;16.37;12.63;;;9.20;99.90;;;;;;5004208;28;20222;-77
2022/09/28 04:09:47;;;;;;;13.97;11.53;;;9.20;99.90;;;;;;5004220;28;20218;-78
2022/09/28 04:12:14;;;;;;;16.57;12.40;;;9.10;99.90;;;;;;4999936;28;20600;-78
2022/09/28 04:14:42;;;;;;;17.40;12.23;;;9.10;99.90;;;;;;4989038;28;20600;-78
2022/09/28 04:17:09;;;;;;;14.03;11.90;;;9.10;99.90;;;;;;4984339;28;20199;-78
2022/09/28 04:19:38;;;;;;;15.13;12.83;;;9.20;99.90;;;;;;5004178;28;20199;-77
2022/09/28 04:22:36;;;;;;;15.70;12.50;;;9.30;99.90;;;;;;4993943;28;20723;-78
2022/09/28 04:25:04;;;;;;;15.60;12.27;;;9.30;99.90;;;;;;4995679;28;20196;-77
2022/09/28 04:30:17;;;;;;;14.97;12.07;;;9.40;99.90;;;;;;4989253;28;20210;-79
2022/09/28 04:32:46;;;;;;;15.50;12.63;;;9.20;99.90;;;;;;4990972;28;20223;-78
2022/09/28 04:35:14;;;;;;;15.03;12.60;;;9.30;99.90;;;;;;4984575;28;20204;-80
2022/09/28 04:37:43;;;;;;;17.43;12.33;;;9.40;99.90;;;;;;4991923;28;20203;-78
2022/09/28 04:40:11;;;;;;;14.27;12.00;;;9.50;99.90;;;;;;4988734;28;20204;-78
2022/09/28 04:42:38;;;;;;;20.03;13.50;;;9.50;99.90;;;;;;4991180;28;20224;-78
2022/09/28 04:45:07;;;;;;;15.90;13.57;;;9.50;99.90;;;;;;4990819;28;20686;-78
2022/09/28 04:47:38;;;;;;;16.63;13.37;;;9.50;99.90;;;;;;5006458;28;20219;-78
2022/09/28 04:50:20;;;;;;;19.00;14.60;;;9.50;99.90;;;;;;5000625;28;20215;-78
2022/09/28 04:53:07;;;;;;;23.30;17.20;;;9.20;99.90;;;;;;5013673;28;20227;-78
2022/09/28 04:55:35;;;;;;;24.20;17.67;;;9.20;99.90;;;;;;5015368;28;20192;-77
2022/09/28 04:58:04;;;;;;;29.47;19.87;;;9.10;99.90;;;;;;4990094;28;20196;-78
2022/09/28 05:00:34;;;;;;;26.33;18.57;;;9.30;99.90;;;;;;4998013;28;20226;-79
2022/09/28 05:03:16;;;;;;;24.57;18.40;;;9.30;99.90;;;;;;5003230;28;20252;-78
2022/09/28 05:06:05;;;;;;;23.97;18.17;;;9.50;99.90;;;;;;5010955;28;20218;-78
2022/09/28 05:08:48;;;;;;;25.67;19.03;;;9.50;99.90;;;;;;5004817;28;20203;-78
2022/09/28 05:11:20;;;;;;;24.80;18.50;;;9.50;99.90;;;;;;5003251;28;20284;-78
2022/09/28 05:13:49;;;;;;;29.10;22.00;;;9.50;99.90;;;;;;4988112;28;20199;-78
2022/09/28 05:16:19;;;;;;;30.43;22.60;;;9.40;99.90;;;;;;4991990;28;20200;-78
2022/09/28 05:19:06;;;;;;;29.10;21.80;;;9.10;99.90;;;;;;5010549;28;20207;-78
2022/09/28 05:21:33;;;;;;;30.67;22.80;;;9.20;99.90;;;;;;5002851;28;20211;-78
2022/09/28 05:24:06;;;;;;;28.40;22.17;;;9.20;99.90;;;;;;4988340;28;20204;-79
2022/09/28 05:26:34;;;;;;;32.20;23.50;;;9.30;99.90;;;;;;4994227;28;21643;-78
2022/09/28 05:29:05;;;;;;;29.50;23.37;;;9.30;99.90;;;;;;4993259;28;20235;-78
2022/09/28 05:32:04;;;;;;;28.53;21.37;;;9.30;99.90;;;;;;5007807;28;20219;-80
2022/09/28 05:34:32;;;;;;;29.43;21.47;;;9.30;99.90;;;;;;5007957;28;20200;-79
2022/09/28 05:37:00;;;;;;;25.90;21.77;;;9.30;99.90;;;;;;5002187;28;20558;-79
2022/09/28 05:39:29;;;;;;;28.83;21.37;;;9.40;99.90;;;;;;5005765;28;20603;-78
2022/09/28 05:41:56;;;;;;;28.47;21.57;;;9.50;99.90;;;;;;5004237;28;20227;-78
2022/09/28 05:47:36;;;;;;;30.23;20.60;;;9.50;99.90;;;;;;4968885;28;20231;-78
2022/09/28 05:50:05;;;;;;;28.83;21.93;;;9.50;99.90;;;;;;4996438;28;20227;-79
2022/09/28 05:52:33;;;;;;;28.60;21.63;;;9.30;99.90;;;;;;4986188;28;20232;-78
2022/09/28 05:55:02;;;;;;;25.73;20.53;;;9.40;99.90;;;;;;4987471;28;20203;-78
2022/09/28 05:57:30;;;;;;;27.47;20.87;;;9.20;99.90;;;;;;5001640;28;20655;-79
2022/09/28 05:59:58;;;;;;;26.67;21.00;;;9.20;99.90;;;;;;5004452;28;20672;-79
2022/09/28 06:02:26;;;;;;;25.63;21.17;;;9.10;99.90;;;;;;4989165;28;20242;-79
2022/09/28 06:04:54;;;;;;;32.43;22.07;;;9.00;99.90;;;;;;4998128;28;20230;-80
2022/09/28 06:07:22;;;;;;;25.83;20.37;;;9.00;99.90;;;;;;4986622;28;20196;-78
2022/09/28 06:09:50;;;;;;;27.33;19.97;;;9.10;99.90;;;;;;4991930;28;20211;-79
2022/09/28 06:12:22;;;;;;;28.23;21.13;;;9.20;99.90;;;;;;5005834;28;20212;-78
2022/09/28 06:14:55;;;;;;;26.40;20.57;;;9.10;99.90;;;;;;4997528;28;20200;-79
2022/09/28 06:17:23;;;;;;;26.27;20.40;;;9.20;99.90;;;;;;4991510;28;20197;-79
2022/09/28 06:20:11;;;;;;;27.73;19.63;;;9.30;99.90;;;;;;5007968;28;20193;-78
2022/09/28 06:22:57;;;;;;;25.77;20.80;;;9.20;99.90;;;;;;5001137;28;20214;-79
2022/09/28 06:25:26;;;;;;;28.63;21.50;;;9.30;99.90;;;;;;4999392;28;20203;-79
2022/09/28 06:27:56;;;;;;;17.83;13.97;;;9.30;99.90;;;;;;4990246;28;20200;-80
2022/09/28 06:30:25;;;;;;;22.70;17.40;;;10.00;99.90;;;;;;4996039;28;20227;-80
2022/09/28 06:32:55;;;;;;;25.57;21.37;;;10.80;99.90;;;;;;5001889;28;20242;-80
2022/09/28 06:35:24;;;;;;;25.30;20.63;;;10.00;99.90;;;;;;5000463;28;20203;-79
2022/09/28 06:37:53;;;;;;;28.60;22.13;;;9.80;99.90;;;;;;5007805;28;20200;-78
2022/09/28 06:40:21;;;;;;;27.53;21.07;;;9.40;99.90;;;;;;4987794;28;20196;-77
2022/09/28 06:42:57;;;;;;;26.27;19.63;;;9.50;99.90;;;;;;4986634;28;20216;-78
2022/09/28 06:45:50;;;;;;;27.07;20.23;;;9.40;99.90;;;;;;5011565;28;20210;-77
2022/09/28 06:48:30;;;;;;;26.83;20.90;;;9.40;99.90;;;;;;4984526;28;20215;-77
2022/09/28 06:50:58;;;;;;;24.97;20.37;;;9.40;99.90;;;;;;4985776;28;20207;-79
2022/09/28 06:53:28;;;;;;;27.07;20.97;;;9.60;99.90;;;;;;4987098;28;20216;-78
2022/09/28 06:56:03;;;;;;;28.40;22.33;;;9.70;99.90;;;;;;4987936;28;20584;-77
2022/09/28 06:58:32;;;;;;;24.87;21.17;;;9.50;99.90;;;;;;5006434;28;20211;-80
2022/09/28 07:01:01;;;;;;;25.77;20.63;;;9.50;99.90;;;;;;4988013;28;20667;-79
2022/09/28 07:03:33;;;;;;;29.83;22.37;;;9.40;99.90;;;;;;5000929;28;20238;-79
2022/09/28 07:06:23;;;;;;;26.90;21.37;;;9.50;99.90;;;;;;4988483;28;20192;-79
2022/09/28 07:09:08;;;;;;;29.10;22.90;;;9.40;99.90;;;;;;4990462;28;20246;-79
2022/09/28 07:11:47;;;;;;;32.40;24.00;;;9.30;99.90;;;;;;4990826;28;20219;-79
2022/09/28 07:14:34;;;;;;;30.73;23.77;;;9.40;99.90;;;;;;4993863;28;20199;-79
2022/09/28 07:17:02;;;;;;;30.63;22.80;;;9.40;99.90;;;;;;4993945;28;20787;-79
2022/09/28 07:19:29;;;;;;;29.27;23.30;;;9.40;99.90;;;;;;5006367;28;20207;-79
2022/09/28 07:21:57;;;;;;;30.93;23.20;;;9.40;99.90;;;;;;4987749;28;20695;-78
2022/09/28 07:24:24;;;;;;;27.80;23.07;;;9.40;99.90;;;;;;4995855;28;20196;-79
2022/09/28 07:27:12;;;;;;;26.63;21.70;;;9.50;99.90;;;;;;5005239;28;20687;-79
2022/09/28 07:30:00;;;;;;;29.87;23.87;;;9.60;99.90;;;;;;4993973;28;20249;-79
2022/09/28 07:32:47;;;;;;;28.73;23.03;;;9.70;99.90;;;;;;5001991;28;20610;-79
2022/09/28 07:35:40;;;;;;;28.20;22.63;;;9.70;99.90;;;;;;4993706;28;20191;-79
2022/09/28 07:38:10;;;;;;;28.97;22.67;;;9.70;99.90;;;;;;5007551;28;20188;-78
2022/09/28 07:43:23;;;;;;;29.60;23.40;;;9.70;99.90;;;;;;4984726;28;20304;-78
2022/09/28 07:45:54;;;;;;;29.97;24.23;;;9.60;99.90;;;;;;4987537;28;20215;-79
2022/09/28 07:48:23;;;;;;;28.37;22.40;;;9.60;99.90;;;;;;5006381;28;20279;-78
2022/09/28 07:51:02;;;;;;;31.27;23.10;;;9.60;99.90;;;;;;5002439;28;20231;-78
2022/09/28 07:53:37;;;;;;;29.83;22.90;;;9.60;99.90;;;;;;4995148;28;20223;-78
2022/09/28 07:56:36;;;;;;;32.43;24.03;;;9.70;99.90;;;;;;5010193;28;20207;-78
2022/09/28 07:59:33;;;;;;;30.80;24.80;;;9.80;99.90;;;;;;4952383;28;20213;-78
2022/09/28 08:02:04;;;;;;;32.60;25.33;;;9.80;99.90;;;;;;5011513;28;20239;-79
2022/09/28 08:04:31;;;;;;;31.37;24.63;;;9.80;99.90;;;;;;4991387;28;20211;-78
2022/09/28 08:06:59;;;;;;;29.80;24.37;;;9.90;99.90;;;;;;4991744;28;20208;-78
2022/09/28 08:09:27;;;;;;;33.90;24.83;;;9.90;99.90;;;;;;5010814;28;20214;-79
2022/09/28 08:12:18;;;;;;;32.90;24.73;;;9.80;99.90;;;;;;4977799;28;20231;-78
2022/09/28 08:15:10;;;;;;;31.93;26.10;;;9.80;99.90;;;;;;5009888;28;20271;-78
2022/09/28 08:17:54;;;;;;;33.30;24.40;;;9.90;99.90;;;;;;4997730;28;20204;-78
2022/09/28 08:23:09;;;;;;;29.57;22.70;;;9.70;99.90;;;;;;4985178;28;20722;-78
2022/09/28 08:25:38;;;;;;;29.23;21.70;;;9.70;99.90;;;;;;4989296;28;20203;-78
2022/09/28 08:28:07;;;;;;;29.30;21.43;;;9.80;99.90;;;;;;4991595;28;20200;-78
2022/09/28 08:30:38;;;;;;;25.90;20.73;;;9.80;99.90;;;;;;4986424;28;20225;-78
2022/09/28 08:33:21;;;;;;;24.77;19.30;;;9.80;99.90;;;;;;4984930;28;20250;-78
2022/09/28 08:36:08;;;;;;;25.33;20.33;;;9.70;99.90;;;;;;5011977;28;20215;-78
2022/09/28 08:38:54;;;;;;;25.13;19.47;;;9.70;99.90;;;;;;5005920;28;20672;-78
2022/09/28 08:41:58;;;;;;;23.97;18.17;;;9.80;99.90;;;;;;5001786;28;20215;-80
2022/09/28 08:44:41;;;;;;;21.67;18.10;;;9.90;99.90;;;;;;5000248;28;20196;-79
2022/09/28 08:50:32;;;;;;;19.63;16.37;;;9.90;99.90;;;;;;5002070;28;20211;-79
2022/09/28 08:53:37;;;;;;;18.20;16.23;;;10.10;99.90;;;;;;4999847;28;20614;-78
2022/09/28 08:56:27;;;;;;;17.93;14.83;;;10.10;99.90;;;;;;4986330;28;20212;-78
2022/09/28 08:59:00;;;;;;;17.57;14.70;;;10.10;99.90;;;;;;4990713;28;20211;-78
2022/09/28 09:01:34;;;;;;;16.87;14.53;;;10.10;99.90;;;;;;5001472;28;20196;-78
2022/09/28 09:04:06;;;;;;;17.50;14.33;;;10.00;99.90;;;;;;4985360;28;20199;-80
2022/09/28 09:07:16;;;;;;;17.50;15.00;;;9.90;99.90;;;;;;5008138;28;20211;-78
2022/09/28 09:10:03;;;;;;;18.70;15.20;;;10.10;99.90;;;;;;5011073;28;20212;-79
2022/09/28 09:12:39;;;;;;;20.73;16.33;;;10.30;99.90;;;;;;5002584;28;20230;-79
2022/09/28 09:15:21;;;;;;;22.60;18.00;;;10.40;99.90;;;;;;4992267;28;20195;-78
2022/09/28 09:17:59;;;;;;;18.77;16.70;;;10.20;99.90;;;;;;5006574;28;20208;-78
2022/09/28 09:20:48;;;;;;;19.20;15.83;;;10.30;99.90;;;;;;4992133;28;20192;-78
2022/09/28 09:23:37;;;;;;;16.27;14.50;;;10.40;99.90;;;;;;5011407;28;20222;-78
2022/09/28 09:26:13;;;;;;;17.77;15.10;;;10.20;99.90;;;;;;5004041;28;20192;-78
2022/09/28 09:29:12;;;;;;;17.37;15.57;;;10.10;99.90;;;;;;5012968;28;20659;-78
2022/09/28 09:32:03;;;;;;;21.83;16.80;;;10.20;99.90;;;;;;5012702;28;20228;-78
2022/09/28 09:34:55;;;;;;;19.57;15.27;;;10.30;99.90;;;;;;4981460;28;20487;-77
2022/09/28 09:38:01;;;;;;;18.13;14.83;;;10.20;99.90;;;;;;5014426;28;20695;-78
2022/09/28 09:40:50;;;;;;;16.23;13.70;;;10.00;99.90;;;;;;5011434;28;20204;-78
2022/09/28 09:44:00;;;;;;;16.43;14.40;;;10.10;99.90;;;;;;5006207;28;20219;-78
2022/09/28 09:46:54;;;;;;;13.80;12.40;;;10.40;99.90;;;;;;4994255;28;20211;-79
2022/09/28 09:49:43;;;;;;;13.53;11.43;;;10.40;99.90;;;;;;5015030;28;20218;-78
2022/09/28 09:52:18;;;;;;;11.13;9.60;;;10.50;99.90;;;;;;4990332;28;20226;-77
2022/09/28 09:54:49;;;;;;;10.00;9.00;;;10.40;99.90;;;;;;4998092;28;20203;-78
2022/09/28 09:57:41;;;;;;;11.37;9.60;;;10.40;99.90;;;;;;4995478;28;20204;-78
2022/09/28 10:00:33;;;;;;;11.83;9.80;;;10.30;99.90;;;;;;5002504;28;20196;-78
2022/09/28 10:03:20;;;;;;;12.17;9.33;;;10.50;99.90;;;;;;4994623;28;20238;-78
2022/09/28 10:05:55;;;;;;;10.60;8.23;;;10.60;99.90;;;;;;4990092;28;20199;-78
2022/09/28 10:08:25;;;;;;;9.33;8.43;;;10.70;99.90;;;;;;4997822;28;20196;-77
2022/09/28 10:11:00;;;;;;;7.93;7.17;;;10.80;99.90;;;;;;5007937;28;20243;-78
2022/09/28 10:13:31;;;;;;;8.13;7.30;;;10.80;99.90;;;;;;5006621;28;20223;-78
2022/09/28 10:16:01;;;;;;;9.73;7.27;;;10.80;99.90;;;;;;4999608;28;20200;-77
2022/09/28 10:18:35;;;;;;;6.27;5.67;;;11.00;99.90;;;;;;4987571;28;20215;-78
2022/09/28 10:21:42;;;;;;;5.60;5.10;;;11.00;99.90;;;;;;4932982;29;20229;-76
2022/09/28 10:24:29;;;;;;;5.67;5.17;;;11.20;99.90;;;;;;4916640;29;20212;-77
2022/09/28 10:27:03;;;;;;;5.77;4.90;;;11.30;99.90;;;;;;4964756;28;20203;-77
2022/09/28 10:29:44;;;;;;;6.10;5.13;;;11.40;99.90;;;;;;5006598;28;20199;-77
2022/09/28 10:32:20;;;;;;;6.53;5.70;;;11.50;99.90;;;;;;4989412;28;20228;-77
2022/09/28 10:34:47;;;;;;;6.37;5.77;;;11.40;99.90;;;;;;4987860;28;20211;-76
2022/09/28 10:37:18;;;;;;;5.93;5.43;;;11.30;99.90;;;;;;4982765;28;20203;-76
2022/09/28 10:40:22;;;;;;;4.80;4.40;;;11.30;99.90;;;;;;4998119;28;20189;-77
2022/09/28 10:42:49;;;;;;;4.97;4.57;;;11.60;99.90;;;;;;4985561;28;20224;-77
2022/09/28 10:45:22;;;;;;;6.47;5.57;;;11.80;99.90;;;;;;4983211;28;20220;-77
2022/09/28 10:47:50;;;;;;;5.60;5.10;;;11.80;99.90;;;;;;4990731;28;20196;-78
2022/09/28 10:50:22;;;;;;;5.40;4.90;;;12.00;99.90;;;;;;4986840;28;20208;-77
2022/09/28 10:52:53;;;;;;;5.73;5.20;;;12.20;99.90;;;;;;4997939;28;20505;-77
2022/09/28 10:55:59;;;;;;;5.57;5.07;;;12.20;99.90;;;;;;5006311;28;20207;-76
2022/09/28 10:58:29;;;;;;;6.07;5.47;;;12.20;99.90;;;;;;4978753;28;20693;-77
2022/09/28 11:01:07;;;;;;;6.23;5.63;;;12.20;99.90;;;;;;4983331;28;20196;-77
2022/09/28 11:03:47;;;;;;;5.43;5.00;;;12.00;99.90;;;;;;4999463;28;20222;-78
2022/09/28 11:06:15;;;;;;;5.47;5.03;;;11.90;99.90;;;;;;4995205;28;20667;-79
2022/09/28 11:08:45;;;;;;;5.77;5.27;;;12.00;99.90;;;;;;4990853;28;20210;-77
2022/09/28 11:11:20;;;;;;;6.17;5.57;;;12.10;99.90;;;;;;4989857;28;20226;-76
2022/09/28 11:13:55;;;;;;;5.93;4.80;;;12.00;99.90;;;;;;4988619;28;20554;-77
2022/09/28 11:16:30;;;;;;;5.33;4.83;;;12.00;99.90;;;;;;4988487;28;20196;-78
2022/09/28 11:19:04;;;;;;;5.53;5.03;;;12.20;99.90;;;;;;5004884;28;20200;-77
2022/09/28 11:21:42;;;;;;;5.80;5.30;;;12.10;99.90;;;;;;4985746;28;20227;-77
2022/09/28 11:24:20;;;;;;;6.30;5.13;;;12.20;99.90;;;;;;4992431;28;20208;-77
2022/09/28 11:26:52;;;;;;;5.27;4.87;;;12.20;99.90;;;;;;5005419;28;20203;-76
2022/09/28 11:29:26;;;;;;;5.60;5.10;;;12.20;99.90;;;;;;4988548;28;20194;-77
2022/09/28 11:32:39;;;;;;;7.63;6.85;;;12.20;99.90;;;;;;4978567;28;20238;-77
2022/09/28 11:35:44;;;;;;;9.67;8.47;;;12.00;99.90;;;;;;4995239;28;20214;-77
2022/09/28 11:38:32;;;;;;;9.23;8.33;;;11.90;99.90;;;;;;4984300;28;20205;-77
2022/09/28 11:41:34;;;;;;;12.30;11.00;;;12.00;99.90;;;;;;5000497;28;20214;-77
2022/09/28 11:44:17;;;;;;;10.80;9.83;;;11.80;99.90;;;;;;4987365;28;20195;-76
2022/09/28 11:46:56;;;;;;;10.73;9.63;;;12.10;99.90;;;;;;4976767;28;20660;-77
2022/09/28 11:49:31;;;;;;;10.00;8.97;;;12.10;99.90;;;;;;4986251;28;20196;-77
2022/09/28 11:52:04;;;;;;;10.27;9.10;;;12.30;99.90;;;;;;4984105;28;20230;-76
2022/09/28 11:54:39;;;;;;;9.67;8.67;;;12.60;99.90;;;;;;4986419;28;20292;-77
2022/09/28 11:57:14;;;;;;;9.82;8.82;;;13.00;99.90;;;;;;4988711;28;20211;-76
2022/09/28 11:59:56;;;;;;;9.93;8.93;;;13.40;99.90;;;;;;4986045;28;20222;-77
2022/09/28 12:02:27;;;;;;;9.73;8.75;;;13.80;99.90;;;;;;5003024;28;20224;-77
2022/09/28 12:05:11;;;;;;;8.18;7.38;;;14.30;99.90;;;;;;5004784;28;20214;-77
2022/09/28 12:07:44;;;;;;;8.05;7.25;;;14.40;99.90;;;;;;4987351;28;20287;-77
2022/09/28 12:10:38;;;;;;;7.68;6.97;;;13.90;99.90;;;;;;4999037;28;20562;-77
2022/09/28 12:13:11;;;;;;;10.43;7.35;;;14.10;99.90;;;;;;4990104;28;20219;-78
2022/09/28 12:15:46;;;;;;;8.63;7.82;;;14.00;99.90;;;;;;5006279;28;20199;-77
2022/09/28 12:18:21;;;;;;;7.68;6.90;;;13.40;99.90;;;;;;4999195;28;20203;-77
2022/09/28 12:20:53;;;;;;;7.18;5.80;;;13.10;99.90;;;;;;4977496;28;20642;-77
2022/09/28 12:23:29;;;;;;;7.63;6.15;;;12.90;99.90;;;;;;4988411;28;20211;-77
2022/09/28 12:26:00;;;;;;;6.47;5.78;;;12.90;99.90;;;;;;4994222;28;20199;-75
2022/09/28 12:28:36;;;;;;;5.80;5.20;;;12.70;99.90;;;;;;4987206;28;20206;-76
2022/09/28 12:31:14;;;;;;;5.70;5.20;;;12.80;99.90;;;;;;4998240;28;20218;-76
2022/09/28 12:33:47;;;;;;;7.95;6.32;;;12.80;99.90;;;;;;4984958;28;20247;-77
2022/09/28 12:36:29;;;;;;;6.55;5.93;;;12.70;99.90;;;;;;4990018;28;20200;-76
2022/09/28 12:39:08;;;;;;;6.95;6.25;;;12.70;99.90;;;;;;4988042;28;20223;-77
2022/09/28 12:41:49;;;;;;;7.50;6.70;;;12.50;99.90;;;;;;4991130;28;20196;-77
2022/09/28 12:44:40;;;;;;;8.20;7.40;;;12.40;99.90;;;;;;4995598;28;20207;-77
2022/09/28 12:47:24;;;;;;;7.93;6.43;;;12.30;99.90;;;;;;5002914;28;20200;-77
2022/09/28 12:50:06;;;;;;;7.50;6.80;;;12.30;99.90;;;;;;4991002;28;20195;-76
2022/09/28 12:52:47;;;;;;;8.80;7.00;;;12.30;99.90;;;;;;4991448;28;20232;-79
2022/09/28 12:55:26;;;;;;;7.00;6.33;;;12.10;99.90;;;;;;4993893;28;20199;-77
2022/09/28 12:58:02;;;;;;;9.67;7.47;;;12.10;99.90;;;;;;4994832;28;20221;-78
2022/09/28 13:00:38;;;;;;;9.00;7.87;;;12.00;99.90;;;;;;4993404;28;20216;-77
2022/09/28 13:03:29;;;;;;;8.90;8.10;;;11.90;99.90;;;;;;4995699;28;20242;-79
2022/09/28 13:06:23;;;;;;;10.20;8.87;;;11.90;99.90;;;;;;4991779;28;20207;-79
2022/09/28 13:09:11;;;;;;;10.37;9.27;;;11.90;99.90;;;;;;5002685;28;20204;-78
2022/09/28 13:11:48;;;;;;;10.93;9.90;;;12.00;99.90;;;;;;4982704;28;20216;-79
2022/09/28 13:14:35;;;;;;;11.80;9.67;;;12.10;99.90;;;;;;5011531;28;20192;-78
2022/09/28 13:17:11;;;;;;;9.50;8.70;;;12.30;99.90;;;;;;4982805;28;20211;-78
2022/09/28 13:19:50;;;;;;;9.87;8.87;;;12.50;99.90;;;;;;4987966;28;20203;-78
2022/09/28 13:22:29;;;;;;;9.40;8.40;;;12.60;99.90;;;;;;4994202;28;20230;-78
2022/09/28 13:25:02;;;;;;;8.10;7.33;;;12.60;99.90;;;;;;4994466;28;20211;-78
2022/09/28 13:27:35;;;;;;;8.70;8.00;;;12.80;99.90;;;;;;5003114;28;20660;-79
2022/09/28 13:30:06;;;;;;;9.50;8.60;;;12.80;99.90;;;;;;4993079;28;20200;-79
2022/09/28 13:32:37;;;;;;;9.03;8.23;;;12.70;99.90;;;;;;4995171;28;20223;-78
2022/09/28 13:35:05;;;;;;;8.63;7.70;;;12.70;99.90;;;;;;4990475;28;20204;-78
2022/09/28 13:37:33;;;;;;;8.93;8.03;;;12.60;99.90;;;;;;5009187;28;20677;-78
2022/09/28 13:40:05;;;;;;;8.60;7.80;;;12.90;99.90;;;;;;4992649;28;20206;-78